sensor_id;sensor_type;location;lat;lon;timestamp;temperature;humidity
31759;DHT22;36334;51.366;0.020;2022-08-19T00:00:41;19.50;99.90
31759;DHT22;36334;51.366;0.020;2022-08-19T00:03:27;19.50;99.90
31759;DHT22;36334;51.366;0.020;2022-08-19T00:06:14;19.50;99.90
31759;DHT22;36334;51.366;0.020;2022-08-19T00:09:04;19.50;99.90
31759;DHT22;36334;51.366;0.020;2022-08-19T00:11:50;19.50;99.90
31759;DHT22;36334;51.366;0.020;2022-08-19T00:14:36;19.50;99.90
31759;DHT22;36334;51.366;0.020;2022-08-19T00:17:23;19.50;99.90
31759;DHT22;36334;51.366;0.020;2022-08-19T00:20:10;19.60;99.90
31759;DHT22;36334;51.366;0.020;2022-08-19T00:22:56;19.60;99.90
31759;DHT22;36334;51.366;0.020;2022-08-19T00:25:43;19.60;99.90
31759;DHT22;36334;51.366;0.020;2022-08-19T00:28:33;19.60;99.90
31759;DHT22;36334;51.366;0.020;2022-08-19T00:31:21;19.70;99.90
31759;DHT22;36334;51.366;0.020;2022-08-19T00:34:07;19.70;99.90
31759;DHT22;36334;51.366;0.020;2022-08-19T00:36:54;19.60;99.90
31759;DHT22;36334;51.366;0.020;2022-08-19T00:39:40;19.70;99.90
31759;DHT22;36334;51.366;0.020;2022-08-19T00:42:26;19.70;99.90
31759;DHT22;36334;51.366;0.020;2022-08-19T00:45:16;19.80;99.90
31759;DHT22;36334;51.366;0.020;2022-08-19T00:48:05;19.70;99.90
31759;DHT22;36334;51.366;0.020;2022-08-19T00:51:00;19.80;99.90
31759;DHT22;36334;51.366;0.020;2022-08-19T00:53:46;19.90;99.90
31759;DHT22;36334;51.366;0.020;2022-08-19T00:56:32;19.90;99.90
31759;DHT22;36334;51.366;0.020;2022-08-19T00:59:19;19.90;99.90
31759;DHT22;36334;51.366;0.020;2022-08-19T01:02:25;19.90;99.90
31759;DHT22;36334;51.366;0.020;2022-08-19T01:05:14;19.90;99.90
31759;DHT22;36334;51.366;0.020;2022-08-19T01:08:02;19.90;99.90
31759;DHT22;36334;51.366;0.020;2022-08-19T01:10:50;19.90;99.90
31759;DHT22;36334;51.366;0.020;2022-08-19T01:13:36;19.90;99.90
31759;DHT22;36334;51.366;0.020;2022-08-19T01:16:34;19.90;99.90
31759;DHT22;36334;51.366;0.020;2022-08-19T01:19:25;19.90;99.90
31759;DHT22;36334;51.366;0.020;2022-08-19T01:25:01;19.90;99.90
31759;DHT22;36334;51.366;0.020;2022-08-19T01:27:49;19.80;99.90
31759;DHT22;36334;51.366;0.020;2022-08-19T01:30:38;19.80;99.90
31759;DHT22;36334;51.366;0.020;2022-08-19T01:33:31;19.80;99.90
31759;DHT22;36334;51.366;0.020;2022-08-19T01:39:15;19.80;99.90
31759;DHT22;36334;51.366;0.020;2022-08-19T01:42:02;19.80;99.90
31759;DHT22;36334;51.366;0.020;2022-08-19T01:44:48;19.70;99.90
31759;DHT22;36334;51.366;0.020;2022-08-19T01:47:35;19.70;99.90
31759;DHT22;36334;51.366;0.020;2022-08-19T01:50:21;19.80;99.90
31759;DHT22;36334;51.366;0.020;2022-08-19T01:53:09;19.80;99.90
31759;DHT22;36334;51.366;0.020;2022-08-19T01:55:56;19.80;99.90
31759;DHT22;36334;51.366;0.020;2022-08-19T01:59:00;19.90;99.90
31759;DHT22;36334;51.366;0.020;2022-08-19T02:01:46;19.90;99.90
31759;DHT22;36334;51.366;0.020;2022-08-19T02:04:33;19.90;99.90
31759;DHT22;36334;51.366;0.020;2022-08-19T02:07:21;19.80;99.90
31759;DHT22;36334;51.366;0.020;2022-08-19T02:10:09;19.90;99.90
31759;DHT22;36334;51.366;0.020;2022-08-19T02:12:58;19.80;99.90
31759;DHT22;36334;51.366;0.020;2022-08-19T02:15:45;19.90;99.90
31759;DHT22;36334;51.366;0.020;2022-08-19T02:18:31;19.80;99.90
31759;DHT22;36334;51.366;0.020;2022-08-19T02:21:17;19.80;99.90
31759;DHT22;36334;51.366;0.020;2022-08-19T02:24:03;19.80;99.90
31759;DHT22;36334;51.366;0.020;2022-08-19T02:26:50;19.90;99.90
31759;DHT22;36334;51.366;0.020;2022-08-19T02:29:36;19.90;99.90
31759;DHT22;36334;51.366;0.020;2022-08-19T02:32:22;19.90;99.90
31759;DHT22;36334;51.366;0.020;2022-08-19T02:35:08;19.90;99.90
31759;DHT22;36334;51.366;0.020;2022-08-19T02:37:57;19.90;99.90
31759;DHT22;36334;51.366;0.020;2022-08-19T02:41:05;19.90;99.90
31759;DHT22;36334;51.366;0.020;2022-08-19T02:43:52;20.00;99.90
31759;DHT22;36334;51.366;0.020;2022-08-19T02:46:57;20.00;99.90
31759;DHT22;36334;51.366;0.020;2022-08-19T02:49:44;20.00;99.90
31759;DHT22;36334;51.366;0.020;2022-08-19T02:52:31;20.00;99.90
31759;DHT22;36334;51.366;0.020;2022-08-19T02:55:17;20.00;99.90
31759;DHT22;36334;51.366;0.020;2022-08-19T02:58:03;20.00;99.90
31759;DHT22;36334;51.366;0.020;2022-08-19T03:00:54;20.00;99.90
31759;DHT22;36334;51.366;0.020;2022-08-19T03:03:40;20.00;99.90
31759;DHT22;36334;51.366;0.020;2022-08-19T03:06:26;20.00;99.90
31759;DHT22;36334;51.366;0.020;2022-08-19T03:09:12;20.10;99.90
31759;DHT22;36334;51.366;0.020;2022-08-19T03:11:59;20.10;99.90
31759;DHT22;36334;51.366;0.020;2022-08-19T03:14:45;20.10;99.90
31759;DHT22;36334;51.366;0.020;2022-08-19T03:17:32;20.10;99.90
31759;DHT22;36334;51.366;0.020;2022-08-19T03:20:18;20.10;99.90
31759;DHT22;36334;51.366;0.020;2022-08-19T03:23:04;20.10;99.90
31759;DHT22;36334;51.366;0.020;2022-08-19T03:25:51;20.10;99.90
31759;DHT22;36334;51.366;0.020;2022-08-19T03:28:57;20.10;99.90
31759;DHT22;36334;51.366;0.020;2022-08-19T03:31:49;20.10;99.90
31759;DHT22;36334;51.366;0.020;2022-08-19T03:34:38;20.00;99.90
31759;DHT22;36334;51.366;0.020;2022-08-19T03:37:24;20.00;99.90
31759;DHT22;36334;51.366;0.020;2022-08-19T03:40:10;20.10;99.90
31759;DHT22;36334;51.366;0.020;2022-08-19T03:43:01;20.00;99.90
31759;DHT22;36334;51.366;0.020;2022-08-19T03:45:48;20.10;99.90
31759;DHT22;36334;51.366;0.020;2022-08-19T03:48:34;20.10;99.90
31759;DHT22;36334;51.366;0.020;2022-08-19T03:51:22;20.00;99.90
31759;DHT22;36334;51.366;0.020;2022-08-19T03:54:17;20.10;99.90
31759;DHT22;36334;51.366;0.020;2022-08-19T03:57:03;20.10;99.90
31759;DHT22;36334;51.366;0.020;2022-08-19T03:59:49;20.10;99.90
31759;DHT22;36334;51.366;0.020;2022-08-19T04:02:35;20.00;99.90
31759;DHT22;36334;51.366;0.020;2022-08-19T04:05:21;20.00;99.90
31759;DHT22;36334;51.366;0.020;2022-08-19T04:08:12;20.00;99.90
31759;DHT22;36334;51.366;0.020;2022-08-19T04:10:59;19.90;99.90
31759;DHT22;36334;51.366;0.020;2022-08-19T04:13:45;19.90;99.90
31759;DHT22;36334;51.366;0.020;2022-08-19T04:16:31;19.90;99.90
31759;DHT22;36334;51.366;0.020;2022-08-19T04:19:20;19.80;99.90
31759;DHT22;36334;51.366;0.020;2022-08-19T04:22:05;19.80;99.90
31759;DHT22;36334;51.366;0.020;2022-08-19T04:24:52;19.80;99.90
31759;DHT22;36334;51.366;0.020;2022-08-19T04:27:38;19.80;99.90
31759;DHT22;36334;51.366;0.020;2022-08-19T04:30:24;19.80;99.90
31759;DHT22;36334;51.366;0.020;2022-08-19T04:33:11;19.80;99.90
31759;DHT22;36334;51.366;0.020;2022-08-19T04:35:57;19.80;99.90
31759;DHT22;36334;51.366;0.020;2022-08-19T04:38:43;19.80;99.90
31759;DHT22;36334;51.366;0.020;2022-08-19T04:41:29;19.80;99.90
31759;DHT22;36334;51.366;0.020;2022-08-19T04:44:34;19.80;99.90
31759;DHT22;36334;51.366;0.020;2022-08-19T04:47:28;19.80;99.90
31759;DHT22;36334;51.366;0.020;2022-08-19T04:50:35;19.80;99.90
31759;DHT22;36334;51.366;0.020;2022-08-19T04:53:21;19.80;99.90
31759;DHT22;36334;51.366;0.020;2022-08-19T04:56:08;19.90;99.90
31759;DHT22;36334;51.366;0.020;2022-08-19T04:58:55;19.80;99.90
31759;DHT22;36334;51.366;0.020;2022-08-19T05:01:42;19.80;99.90
31759;DHT22;36334;51.366;0.020;2022-08-19T05:04:28;19.80;99.90
31759;DHT22;36334;51.366;0.020;2022-08-19T05:07:17;19.80;99.90
31759;DHT22;36334;51.366;0.020;2022-08-19T05:10:04;19.80;99.90
31759;DHT22;36334;51.366;0.020;2022-08-19T05:12:51;19.80;99.90
31759;DHT22;36334;51.366;0.020;2022-08-19T05:15:37;19.80;99.90
31759;DHT22;36334;51.366;0.020;2022-08-19T05:18:23;19.90;99.90
31759;DHT22;36334;51.366;0.020;2022-08-19T05:21:27;19.80;99.90
31759;DHT22;36334;51.366;0.020;2022-08-19T05:24:32;19.90;99.90
31759;DHT22;36334;51.366;0.020;2022-08-19T05:27:41;19.90;99.90
31759;DHT22;36334;51.366;0.020;2022-08-19T05:30:27;20.00;99.90
31759;DHT22;36334;51.366;0.020;2022-08-19T05:33:31;19.90;99.90
31759;DHT22;36334;51.366;0.020;2022-08-19T05:36:17;20.00;99.90
31759;DHT22;36334;51.366;0.020;2022-08-19T05:39:06;20.00;99.90
31759;DHT22;36334;51.366;0.020;2022-08-19T05:41:55;20.00;99.90
31759;DHT22;36334;51.366;0.020;2022-08-19T05:44:43;20.10;99.90
31759;DHT22;36334;51.366;0.020;2022-08-19T05:47:29;20.10;99.90
31759;DHT22;36334;51.366;0.020;2022-08-19T05:50:15;20.20;99.90
31759;DHT22;36334;51.366;0.020;2022-08-19T05:53:03;20.20;99.90
31759;DHT22;36334;51.366;0.020;2022-08-19T05:55:52;20.30;99.90
31759;DHT22;36334;51.366;0.020;2022-08-19T05:58:38;20.30;99.90
31759;DHT22;36334;51.366;0.020;2022-08-19T06:01:24;20.30;99.90
31759;DHT22;36334;51.366;0.020;2022-08-19T06:04:10;20.30;99.90
31759;DHT22;36334;51.366;0.020;2022-08-19T06:06:56;20.30;99.90
31759;DHT22;36334;51.366;0.020;2022-08-19T06:09:44;20.40;99.90
31759;DHT22;36334;51.366;0.020;2022-08-19T06:12:45;20.50;99.90
31759;DHT22;36334;51.366;0.020;2022-08-19T06:15:32;20.50;99.90
31759;DHT22;36334;51.366;0.020;2022-08-19T06:18:18;20.60;99.90
31759;DHT22;36334;51.366;0.020;2022-08-19T06:21:04;20.60;99.90
31759;DHT22;36334;51.366;0.020;2022-08-19T06:23:51;20.60;99.90
31759;DHT22;36334;51.366;0.020;2022-08-19T06:26:38;20.60;99.90
31759;DHT22;36334;51.366;0.020;2022-08-19T06:29:25;20.60;99.90
31759;DHT22;36334;51.366;0.020;2022-08-19T06:32:11;20.60;99.90
31759;DHT22;36334;51.366;0.020;2022-08-19T06:34:57;20.60;99.90
31759;DHT22;36334;51.366;0.020;2022-08-19T06:37:43;20.70;99.90
31759;DHT22;36334;51.366;0.020;2022-08-19T06:40:29;20.70;99.90
31759;DHT22;36334;51.366;0.020;2022-08-19T06:43:15;20.80;99.90
31759;DHT22;36334;51.366;0.020;2022-08-19T06:46:03;20.80;99.90
31759;DHT22;36334;51.366;0.020;2022-08-19T06:48:51;20.80;99.90
31759;DHT22;36334;51.366;0.020;2022-08-19T06:51:39;20.80;99.90
31759;DHT22;36334;51.366;0.020;2022-08-19T06:54:28;20.80;99.90
31759;DHT22;36334;51.366;0.020;2022-08-19T06:57:26;20.80;99.90
31759;DHT22;36334;51.366;0.020;2022-08-19T07:00:12;20.80;99.90
31759;DHT22;36334;51.366;0.020;2022-08-19T07:03:01;20.80;99.90
31759;DHT22;36334;51.366;0.020;2022-08-19T07:05:53;20.80;99.90
31759;DHT22;36334;51.366;0.020;2022-08-19T07:08:39;20.80;99.90
31759;DHT22;36334;51.366;0.020;2022-08-19T07:11:29;20.80;99.90
31759;DHT22;36334;51.366;0.020;2022-08-19T07:14:20;20.70;99.90
31759;DHT22;36334;51.366;0.020;2022-08-19T07:17:07;20.80;99.90
31759;DHT22;36334;51.366;0.020;2022-08-19T07:19:53;20.80;99.90
31759;DHT22;36334;51.366;0.020;2022-08-19T07:22:39;20.80;99.90
31759;DHT22;36334;51.366;0.020;2022-08-19T07:25:25;20.90;99.90
31759;DHT22;36334;51.366;0.020;2022-08-19T07:28:18;20.90;99.90
31759;DHT22;36334;51.366;0.020;2022-08-19T07:31:10;20.90;99.90
31759;DHT22;36334;51.366;0.020;2022-08-19T07:33:59;20.90;99.90
31759;DHT22;36334;51.366;0.020;2022-08-19T07:36:45;20.90;99.90
31759;DHT22;36334;51.366;0.020;2022-08-19T07:39:32;20.90;99.90
31759;DHT22;36334;51.366;0.020;2022-08-19T07:42:19;20.90;99.90
31759;DHT22;36334;51.366;0.020;2022-08-19T07:45:06;20.90;99.90
31759;DHT22;36334;51.366;0.020;2022-08-19T07:47:54;20.90;99.90
31759;DHT22;36334;51.366;0.020;2022-08-19T07:50:40;20.90;99.90
31759;DHT22;36334;51.366;0.020;2022-08-19T07:53:26;20.90;99.90
31759;DHT22;36334;51.366;0.020;2022-08-19T07:56:12;21.00;99.90
31759;DHT22;36334;51.366;0.020;2022-08-19T07:58:59;21.00;99.90
31759;DHT22;36334;51.366;0.020;2022-08-19T08:01:45;21.10;99.90
31759;DHT22;36334;51.366;0.020;2022-08-19T08:04:31;21.20;99.90
31759;DHT22;36334;51.366;0.020;2022-08-19T08:07:36;21.30;99.90
31759;DHT22;36334;51.366;0.020;2022-08-19T08:10:40;21.40;99.90
31759;DHT22;36334;51.366;0.020;2022-08-19T08:13:27;21.40;99.90
31759;DHT22;36334;51.366;0.020;2022-08-19T08:16:13;21.50;99.90
31759;DHT22;36334;51.366;0.020;2022-08-19T08:18:59;21.60;99.90
31759;DHT22;36334;51.366;0.020;2022-08-19T08:21:46;21.70;99.90
31759;DHT22;36334;51.366;0.020;2022-08-19T08:24:32;21.70;99.90
31759;DHT22;36334;51.366;0.020;2022-08-19T08:27:19;21.80;99.90
31759;DHT22;36334;51.366;0.020;2022-08-19T08:30:17;21.80;99.90
31759;DHT22;36334;51.366;0.020;2022-08-19T08:33:04;21.90;99.90
31759;DHT22;36334;51.366;0.020;2022-08-19T08:35:50;22.00;99.90
31759;DHT22;36334;51.366;0.020;2022-08-19T08:38:38;22.10;99.90
31759;DHT22;36334;51.366;0.020;2022-08-19T08:44:52;22.20;99.90
31759;DHT22;36334;51.366;0.020;2022-08-19T08:47:37;22.30;99.90
31759;DHT22;36334;51.366;0.020;2022-08-19T08:50:34;22.40;99.90
31759;DHT22;36334;51.366;0.020;2022-08-19T08:53:23;22.50;99.90
31759;DHT22;36334;51.366;0.020;2022-08-19T08:56:17;22.60;99.90
31759;DHT22;36334;51.366;0.020;2022-08-19T08:59:12;22.60;99.90
31759;DHT22;36334;51.366;0.020;2022-08-19T09:02:02;22.60;99.90
31759;DHT22;36334;51.366;0.020;2022-08-19T09:04:49;22.60;99.90
31759;DHT22;36334;51.366;0.020;2022-08-19T09:16:22;22.50;99.90
31759;DHT22;36334;51.366;0.020;2022-08-19T09:19:12;22.40;99.90
31759;DHT22;36334;51.366;0.020;2022-08-19T09:21:58;22.30;99.90
31759;DHT22;36334;51.366;0.020;2022-08-19T09:24:46;22.20;99.90
31759;DHT22;36334;51.366;0.020;2022-08-19T09:27:32;22.10;99.90
31759;DHT22;36334;51.366;0.020;2022-08-19T09:30:28;22.20;99.90
31759;DHT22;36334;51.366;0.020;2022-08-19T09:33:15;22.30;99.90
31759;DHT22;36334;51.366;0.020;2022-08-19T09:36:12;22.40;99.90
31759;DHT22;36334;51.366;0.020;2022-08-19T09:39:15;22.50;99.90
31759;DHT22;36334;51.366;0.020;2022-08-19T09:42:01;22.60;99.90
31759;DHT22;36334;51.366;0.020;2022-08-19T09:44:49;22.60;99.90
31759;DHT22;36334;51.366;0.020;2022-08-19T09:47:35;22.60;99.90
31759;DHT22;36334;51.366;0.020;2022-08-19T09:50:25;22.50;99.90
31759;DHT22;36334;51.366;0.020;2022-08-19T09:53:11;22.50;99.90
31759;DHT22;36334;51.366;0.020;2022-08-19T09:55:57;22.50;99.90
31759;DHT22;36334;51.366;0.020;2022-08-19T09:58:43;22.40;99.90
31759;DHT22;36334;51.366;0.020;2022-08-19T10:01:30;22.40;99.90
31759;DHT22;36334;51.366;0.020;2022-08-19T10:04:17;22.40;99.90
31759;DHT22;36334;51.366;0.020;2022-08-19T10:07:06;22.40;99.90
31759;DHT22;36334;51.366;0.020;2022-08-19T10:09:52;22.40;99.90
31759;DHT22;36334;51.366;0.020;2022-08-19T10:12:38;22.40;99.90
31759;DHT22;36334;51.366;0.020;2022-08-19T10:15:25;22.60;99.90
31759;DHT22;36334;51.366;0.020;2022-08-19T10:18:14;22.70;99.90
31759;DHT22;36334;51.366;0.020;2022-08-19T10:21:06;22.80;99.90
31759;DHT22;36334;51.366;0.020;2022-08-19T10:23:58;22.90;99.90
31759;DHT22;36334;51.366;0.020;2022-08-19T10:26:44;22.90;99.90
31759;DHT22;36334;51.366;0.020;2022-08-19T10:29:40;23.00;99.90
31759;DHT22;36334;51.366;0.020;2022-08-19T10:32:31;23.00;99.90
31759;DHT22;36334;51.366;0.020;2022-08-19T10:35:19;23.10;99.90
31759;DHT22;36334;51.366;0.020;2022-08-19T10:38:06;23.20;99.90
31759;DHT22;36334;51.366;0.020;2022-08-19T10:40:54;23.30;99.90
31759;DHT22;36334;51.366;0.020;2022-08-19T10:43:42;23.40;99.90
31759;DHT22;36334;51.366;0.020;2022-08-19T10:46:28;23.50;99.90
31759;DHT22;36334;51.366;0.020;2022-08-19T10:49:18;23.60;99.90
31759;DHT22;36334;51.366;0.020;2022-08-19T10:52:09;23.80;99.90
31759;DHT22;36334;51.366;0.020;2022-08-19T10:55:21;23.70;99.90
31759;DHT22;36334;51.366;0.020;2022-08-19T10:58:25;23.60;99.90
31759;DHT22;36334;51.366;0.020;2022-08-19T11:01:11;23.50;99.90
31759;DHT22;36334;51.366;0.020;2022-08-19T11:03:57;23.30;99.90
31759;DHT22;36334;51.366;0.020;2022-08-19T11:06:45;23.20;99.90
31759;DHT22;36334;51.366;0.020;2022-08-19T11:09:36;23.10;99.90
31759;DHT22;36334;51.366;0.020;2022-08-19T11:12:27;23.00;99.90
31759;DHT22;36334;51.366;0.020;2022-08-19T11:15:13;22.90;99.90
31759;DHT22;36334;51.366;0.020;2022-08-19T11:17:59;22.80;99.90
31759;DHT22;36334;51.366;0.020;2022-08-19T11:20:45;22.80;99.90
31759;DHT22;36334;51.366;0.020;2022-08-19T11:23:31;22.90;99.90
31759;DHT22;36334;51.366;0.020;2022-08-19T11:26:18;23.00;99.90
31759;DHT22;36334;51.366;0.020;2022-08-19T11:29:04;23.10;99.90
31759;DHT22;36334;51.366;0.020;2022-08-19T11:31:51;23.10;99.90
31759;DHT22;36334;51.366;0.020;2022-08-19T11:34:38;23.10;99.90
31759;DHT22;36334;51.366;0.020;2022-08-19T11:37:27;23.00;99.90
31759;DHT22;36334;51.366;0.020;2022-08-19T11:40:13;23.00;99.90
31759;DHT22;36334;51.366;0.020;2022-08-19T11:42:59;23.10;99.90
31759;DHT22;36334;51.366;0.020;2022-08-19T11:45:45;23.00;99.90
31759;DHT22;36334;51.366;0.020;2022-08-19T11:48:34;23.10;99.90
31759;DHT22;36334;51.366;0.020;2022-08-19T11:51:21;23.30;99.90
31759;DHT22;36334;51.366;0.020;2022-08-19T11:54:07;23.40;99.90
31759;DHT22;36334;51.366;0.020;2022-08-19T11:56:53;23.50;99.90
31759;DHT22;36334;51.366;0.020;2022-08-19T11:59:41;23.70;99.90
31759;DHT22;36334;51.366;0.020;2022-08-19T12:02:28;23.70;99.90
31759;DHT22;36334;51.366;0.020;2022-08-19T12:05:14;23.70;99.90
31759;DHT22;36334;51.366;0.020;2022-08-19T12:08:00;23.80;99.90
31759;DHT22;36334;51.366;0.020;2022-08-19T12:10:46;23.70;99.80
31759;DHT22;36334;51.366;0.020;2022-08-19T12:13:32;23.70;99.60
31759;DHT22;36334;51.366;0.020;2022-08-19T12:16:19;23.70;99.70
31759;DHT22;36334;51.366;0.020;2022-08-19T12:19:06;23.80;99.00
31759;DHT22;36334;51.366;0.020;2022-08-19T12:21:52;23.80;98.70
31759;DHT22;36334;51.366;0.020;2022-08-19T12:24:41;23.90;98.20
31759;DHT22;36334;51.366;0.020;2022-08-19T12:27:27;24.00;97.90
31759;DHT22;36334;51.366;0.020;2022-08-19T12:30:26;24.00;97.70
31759;DHT22;36334;51.366;0.020;2022-08-19T12:33:12;24.10;97.10
31759;DHT22;36334;51.366;0.020;2022-08-19T12:36:00;24.20;97.10
31759;DHT22;36334;51.366;0.020;2022-08-19T12:38:46;24.40;96.60
31759;DHT22;36334;51.366;0.020;2022-08-19T12:41:32;24.40;96.10
31759;DHT22;36334;51.366;0.020;2022-08-19T12:44:19;24.30;96.10
31759;DHT22;36334;51.366;0.020;2022-08-19T12:47:13;24.20;96.40
31759;DHT22;36334;51.366;0.020;2022-08-19T12:50:00;24.10;96.50
31759;DHT22;36334;51.366;0.020;2022-08-19T12:52:52;24.10;96.30
31759;DHT22;36334;51.366;0.020;2022-08-19T12:55:39;24.10;96.20
31759;DHT22;36334;51.366;0.020;2022-08-19T12:58:26;24.10;95.70
31759;DHT22;36334;51.366;0.020;2022-08-19T13:01:13;24.10;95.50
31759;DHT22;36334;51.366;0.020;2022-08-19T13:04:02;24.10;94.80
31759;DHT22;36334;51.366;0.020;2022-08-19T13:06:49;24.20;94.00
31759;DHT22;36334;51.366;0.020;2022-08-19T13:09:35;24.30;93.50
31759;DHT22;36334;51.366;0.020;2022-08-19T13:12:21;24.40;93.40
31759;DHT22;36334;51.366;0.020;2022-08-19T13:15:10;24.40;93.10
31759;DHT22;36334;51.366;0.020;2022-08-19T13:17:57;24.50;92.50
31759;DHT22;36334;51.366;0.020;2022-08-19T13:20:43;24.70;92.40
31759;DHT22;36334;51.366;0.020;2022-08-19T13:23:38;24.80;91.60
31759;DHT22;36334;51.366;0.020;2022-08-19T13:26:24;24.90;91.30
31759;DHT22;36334;51.366;0.020;2022-08-19T13:29:09;24.90;91.00
31759;DHT22;36334;51.366;0.020;2022-08-19T13:32:14;25.10;90.40
31759;DHT22;36334;51.366;0.020;2022-08-19T13:35:20;25.20;90.20
31759;DHT22;36334;51.366;0.020;2022-08-19T13:38:06;25.30;90.10
31759;DHT22;36334;51.366;0.020;2022-08-19T13:40:57;25.50;90.00
31759;DHT22;36334;51.366;0.020;2022-08-19T13:43:57;25.60;89.60
31759;DHT22;36334;51.366;0.020;2022-08-19T13:46:42;25.80;89.20
31759;DHT22;36334;51.366;0.020;2022-08-19T13:49:31;26.00;88.50
31759;DHT22;36334;51.366;0.020;2022-08-19T13:52:17;26.10;87.90
31759;DHT22;36334;51.366;0.020;2022-08-19T13:55:04;26.20;87.10
31759;DHT22;36334;51.366;0.020;2022-08-19T13:57:53;26.10;87.80
31759;DHT22;36334;51.366;0.020;2022-08-19T14:00:41;25.90;87.80
31759;DHT22;36334;51.366;0.020;2022-08-19T14:03:28;25.70;87.90
31759;DHT22;36334;51.366;0.020;2022-08-19T14:06:14;25.70;86.60
31759;DHT22;36334;51.366;0.020;2022-08-19T14:09:00;25.70;86.90
31759;DHT22;36334;51.366;0.020;2022-08-19T14:11:47;25.90;86.70
31759;DHT22;36334;51.366;0.020;2022-08-19T14:14:37;26.10;86.20
31759;DHT22;36334;51.366;0.020;2022-08-19T14:17:23;26.30;84.80
31759;DHT22;36334;51.366;0.020;2022-08-19T14:20:13;26.40;85.30
31759;DHT22;36334;51.366;0.020;2022-08-19T14:23:03;26.60;84.30
31759;DHT22;36334;51.366;0.020;2022-08-19T14:25:51;26.70;84.40
31759;DHT22;36334;51.366;0.020;2022-08-19T14:28:37;26.90;84.00
31759;DHT22;36334;51.366;0.020;2022-08-19T14:31:24;27.00;83.40
31759;DHT22;36334;51.366;0.020;2022-08-19T14:34:15;27.10;82.60
31759;DHT22;36334;51.366;0.020;2022-08-19T14:37:01;27.20;82.50
31759;DHT22;36334;51.366;0.020;2022-08-19T14:39:47;27.10;82.50
31759;DHT22;36334;51.366;0.020;2022-08-19T14:42:36;27.00;79.10
31759;DHT22;36334;51.366;0.020;2022-08-19T14:45:22;26.90;79.80
31759;DHT22;36334;51.366;0.020;2022-08-19T14:48:08;26.80;79.50
31759;DHT22;36334;51.366;0.020;2022-08-19T14:51:05;26.80;78.70
31759;DHT22;36334;51.366;0.020;2022-08-19T14:53:51;26.80;77.20
31759;DHT22;36334;51.366;0.020;2022-08-19T14:56:37;27.00;77.10
31759;DHT22;36334;51.366;0.020;2022-08-19T14:59:25;27.20;76.70
31759;DHT22;36334;51.366;0.020;2022-08-19T15:02:11;27.60;76.30
31759;DHT22;36334;51.366;0.020;2022-08-19T15:05:17;27.90;75.80
31759;DHT22;36334;51.366;0.020;2022-08-19T15:08:03;28.10;71.60
31759;DHT22;36334;51.366;0.020;2022-08-19T15:10:50;28.10;71.40
31759;DHT22;36334;51.366;0.020;2022-08-19T15:13:36;28.10;71.20
31759;DHT22;36334;51.366;0.020;2022-08-19T15:16:23;28.10;70.90
31759;DHT22;36334;51.366;0.020;2022-08-19T15:19:09;28.30;71.40
31759;DHT22;36334;51.366;0.020;2022-08-19T15:21:55;28.70;71.40
31759;DHT22;36334;51.366;0.020;2022-08-19T15:24:43;29.20;70.10
31759;DHT22;36334;51.366;0.020;2022-08-19T15:27:33;29.80;69.60
31759;DHT22;36334;51.366;0.020;2022-08-19T15:30:23;30.40;67.00
31759;DHT22;36334;51.366;0.020;2022-08-19T15:33:10;31.00;66.30
31759;DHT22;36334;51.366;0.020;2022-08-19T15:35:58;31.60;65.40
31759;DHT22;36334;51.366;0.020;2022-08-19T15:38:44;32.20;66.10
31759;DHT22;36334;51.366;0.020;2022-08-19T15:41:32;33.00;63.10
31759;DHT22;36334;51.366;0.020;2022-08-19T15:44:22;33.40;63.10
31759;DHT22;36334;51.366;0.020;2022-08-19T15:47:08;34.00;64.40
31759;DHT22;36334;51.366;0.020;2022-08-19T15:49:55;34.80;64.00
31759;DHT22;36334;51.366;0.020;2022-08-19T15:52:50;35.30;63.60
31759;DHT22;36334;51.366;0.020;2022-08-19T15:55:40;35.70;62.10
31759;DHT22;36334;51.366;0.020;2022-08-19T15:58:27;36.00;62.10
31759;DHT22;36334;51.366;0.020;2022-08-19T16:01:31;36.10;59.00
31759;DHT22;36334;51.366;0.020;2022-08-19T16:04:25;36.10;58.00
31759;DHT22;36334;51.366;0.020;2022-08-19T16:07:29;36.00;57.90
31759;DHT22;36334;51.366;0.020;2022-08-19T16:10:15;36.10;57.50
31759;DHT22;36334;51.366;0.020;2022-08-19T16:13:12;36.40;58.30
31759;DHT22;36334;51.366;0.020;2022-08-19T16:15:58;36.90;58.20
31759;DHT22;36334;51.366;0.020;2022-08-19T16:18:44;37.30;56.80
31759;DHT22;36334;51.366;0.020;2022-08-19T16:21:32;37.30;56.10
31759;DHT22;36334;51.366;0.020;2022-08-19T16:24:20;37.20;55.50
31759;DHT22;36334;51.366;0.020;2022-08-19T16:27:06;37.30;55.60
31759;DHT22;36334;51.366;0.020;2022-08-19T16:29:52;37.40;55.30
31759;DHT22;36334;51.366;0.020;2022-08-19T16:32:41;37.20;55.30
31759;DHT22;36334;51.366;0.020;2022-08-19T16:35:27;37.20;53.70
31759;DHT22;36334;51.366;0.020;2022-08-19T16:38:13;36.80;53.50
31759;DHT22;36334;51.366;0.020;2022-08-19T16:40:59;36.50;53.30
31759;DHT22;36334;51.366;0.020;2022-08-19T16:43:45;36.20;53.00
31759;DHT22;36334;51.366;0.020;2022-08-19T16:46:31;35.80;53.20
31759;DHT22;36334;51.366;0.020;2022-08-19T16:49:17;35.40;52.80
31759;DHT22;36334;51.366;0.020;2022-08-19T16:52:26;35.10;52.60
31759;DHT22;36334;51.366;0.020;2022-08-19T16:55:12;35.10;53.50
31759;DHT22;36334;51.366;0.020;2022-08-19T16:57:58;35.20;53.80
31759;DHT22;36334;51.366;0.020;2022-08-19T17:00:49;35.20;54.10
31759;DHT22;36334;51.366;0.020;2022-08-19T17:03:36;34.90;54.20
31759;DHT22;36334;51.366;0.020;2022-08-19T17:06:25;34.20;54.20
31759;DHT22;36334;51.366;0.020;2022-08-19T17:09:11;33.40;53.80
31759;DHT22;36334;51.366;0.020;2022-08-19T17:11:59;32.90;54.20
31759;DHT22;36334;51.366;0.020;2022-08-19T17:14:45;32.70;54.80
31759;DHT22;36334;51.366;0.020;2022-08-19T17:17:31;32.90;54.70
31759;DHT22;36334;51.366;0.020;2022-08-19T17:20:18;32.90;55.00
31759;DHT22;36334;51.366;0.020;2022-08-19T17:23:07;32.60;55.10
31759;DHT22;36334;51.366;0.020;2022-08-19T17:25:59;32.00;55.20
31759;DHT22;36334;51.366;0.020;2022-08-19T17:28:49;31.30;55.60
31759;DHT22;36334;51.366;0.020;2022-08-19T17:31:35;30.80;55.90
31759;DHT22;36334;51.366;0.020;2022-08-19T17:34:21;30.20;56.10
31759;DHT22;36334;51.366;0.020;2022-08-19T17:37:07;30.00;56.20
31759;DHT22;36334;51.366;0.020;2022-08-19T17:39:53;30.20;56.20
31759;DHT22;36334;51.366;0.020;2022-08-19T17:42:40;30.40;56.00
31759;DHT22;36334;51.366;0.020;2022-08-19T17:45:26;30.40;55.90
31759;DHT22;36334;51.366;0.020;2022-08-19T17:48:13;30.60;56.20
31759;DHT22;36334;51.366;0.020;2022-08-19T17:50:58;30.90;56.30
31759;DHT22;36334;51.366;0.020;2022-08-19T17:53:45;31.10;56.40
31759;DHT22;36334;51.366;0.020;2022-08-19T17:56:34;31.00;56.10
31759;DHT22;36334;51.366;0.020;2022-08-19T17:59:20;30.90;56.30
31759;DHT22;36334;51.366;0.020;2022-08-19T18:02:11;30.80;56.70